• Join FlightAware (Why Join?)
  • Login
  • US Flag 
05:57AM EDT


 

Airport Tracker/Info


-or-


 

Live Flight TrackerFlight Track Log ✈ FLG3630 ✈ 29-Jul-2013 ✈ KDTW - KTVC

Flight Track Log - Related Links

Times and Time Zones

All times are in EDT time to prevent confusion due to time zone crossing. See the FLG3630 flight status page for this flight to view local times or setup timezone preferences in your user account.

Time Position Orientation Groundspeed Altitude Reporting Facility
EDT Latitude Longitude Course Direction KTS MPH feet Rate Location/Type
09:57PM 42.3116 -83.3500 North  Level FlightAware Approximate
09:58PM 42.3674 -83.3500 North  Level FlightAware Approximate
09:59PM 42.4232 -83.3500 North  Level FlightAware Approximate
10:00PM 42.4790 -83.3500 North  Level FlightAware Approximate
10:01PM 42.5348 -83.3500 North  Level FlightAware Approximate
10:02PM 42.5906 -83.3500 North  Level FlightAware Approximate
10:03PM 42.6464 -83.3500 North  Level FlightAware Approximate
10:04PM 42.7022 -83.3500 North  Level FlightAware Approximate
10:05PM 42.7580 -83.3500 North  Level FlightAware Approximate
10:06PM 42.8138 -83.3500 North  Level FlightAware Approximate
10:06PM 42.2097 -83.3697 311° West 137 158 1,300  Level Cleveland Center
10:07PM 42.8694 -83.3514 340° North  Level FlightAware Approximate
10:07PM 42.1619 -83.4406 228° Southwest 221 254 4,200  Level Cleveland Center
10:08PM 42.9610 -83.3667 North  Level FlightAware Approximate
10:08PM 42.1475 -83.5239 257° West 263 303 7,000  Level Cleveland Center
10:09PM 43.0546 -83.3667 North  Level FlightAware Approximate
10:09PM 42.2325 -83.5392 352° North 279 321 10,600  Level Cleveland Center
10:10PM 43.1227 -83.4454 304° West  Level FlightAware Approximate
10:10PM 42.2889 -83.5333 North 311 358 11,800  Level Cleveland Center
10:11PM 43.1828 -83.5434 311° West  Level FlightAware Approximate
10:11PM 42.4022 -83.5019 12° North 325 374 13,000  Level Cleveland Center
10:12PM 42.5156 -83.4706 12° North 353 406 14,400 1,200 Climbing Cleveland Center
10:13PM 42.6100 -83.4467 11° North 366 421 15,500 1,200 Climbing Cleveland Center
10:14PM 42.7192 -83.4178 11° North 382 440 16,800 1,140 Climbing Cleveland Center
10:15PM 42.8278 -83.4058 North 387 445 17,800 1,020 Climbing Cleveland Center
10:16PM 42.9233 -83.5092 322° Northwest 363 418 18,900 900 Climbing Cleveland Center
10:17PM 43.0106 -83.6014 322° Northwest 377 434 19,600 540 Climbing Cleveland Center
10:18PM 43.0956 -83.6967 321° Northwest 391 450 20,000 180 Climbing Cleveland Center
10:19PM 43.1844 -83.7950 321° Northwest 402 463 20,000  Level Cleveland Center
10:20PM 43.2775 -83.8967 322° Northwest 419 482 20,000  Level Cleveland Center
10:21PM 43.3503 -83.9778 321° Northwest 419 482 20,000  Level Cleveland Center
10:22PM 43.4083 -84.0439 320° Northwest 421 484 20,000  Level Minneapolis Center
10:23PM 43.4994 -84.1447 321° Northwest 422 486 20,000  Level Minneapolis Center
10:24PM 43.5892 -84.2458 321° Northwest 420 483 20,000  Level Minneapolis Center
10:25PM 43.6794 -84.3475 321° Northwest 421 484 20,000  Level Minneapolis Center
10:26PM 43.7706 -84.4494 321° Northwest 422 486 20,000  Level Minneapolis Center
10:27PM 43.8606 -84.5531 320° Northwest 423 487 20,000  Level Minneapolis Center
10:28PM 43.9692 -84.6775 321° Northwest 424 488 20,000 -900 Level Minneapolis Center
10:29PM 44.0561 -84.7753 321° Northwest 418 481 18,200 -1,920 Descending Minneapolis Center
10:30PM 44.1433 -84.8747 321° Northwest 412 474 16,100 -2,220 Descending Minneapolis Center
10:31PM 44.2278 -84.9719 320° Northwest 405 466 13,800 -2,280 Descending Minneapolis Center
10:32PM 44.3083 -85.0675 320° Northwest 392 451 11,500 -1,740 Descending Minneapolis Center
10:33PM 44.3786 -85.1514 320° Northwest 352 405 10,300 -1,500 Descending Minneapolis Center
10:34PM 44.4394 -85.2214 321° Northwest 310 357 8,500 -2,100 Descending Minneapolis Center
10:35PM 44.5156 -85.2806 331° Northwest 278 320 6,100 -2,100 Descending Minneapolis Center
10:36PM 44.5800 -85.3233 335° Northwest 266 306 4,300 -1,620 Descending Minneapolis Center
10:37PM 44.6417 -85.3653 334° Northwest 256 295 2,800 -1,500 Descending Minneapolis Center